createdAt,value
2023-08-15T00:02:09.150Z,4.93
2023-08-15T00:05:13.481Z,5.10
2023-08-15T00:11:25.534Z,4.95
2023-08-15T00:14:30.132Z,5.90
2023-08-15T00:17:34.457Z,4.80
2023-08-15T00:20:38.899Z,4.68
2023-08-15T00:23:43.388Z,5.13
2023-08-15T00:26:47.484Z,5.20
2023-08-15T00:29:51.839Z,5.05
2023-08-15T00:32:56.181Z,5.35
2023-08-15T00:36:00.841Z,4.88
2023-08-15T00:39:05.611Z,4.88
2023-08-15T00:42:09.627Z,4.90
2023-08-15T00:45:13.990Z,4.53
2023-08-15T00:48:21.317Z,5.20
2023-08-15T00:51:28.033Z,5.10
2023-08-15T00:54:32.888Z,4.78
2023-08-15T00:57:37.920Z,5.20
2023-08-15T01:00:53.153Z,4.68
2023-08-15T01:03:58.771Z,5.15
2023-08-15T01:07:03.990Z,5.20
2023-08-15T01:10:09.560Z,5.45
2023-08-15T01:13:29.064Z,4.40
2023-08-15T01:16:41.462Z,5.07
2023-08-15T01:19:50.923Z,5.30
2023-08-15T01:23:01.178Z,4.45
2023-08-15T01:26:05.392Z,4.40
2023-08-15T01:29:10.048Z,4.05
2023-08-15T01:32:48.828Z,4.40
2023-08-15T01:36:13.108Z,4.68
2023-08-15T01:39:28.479Z,4.47
2023-08-15T01:42:33.787Z,4.60
2023-08-15T01:45:38.173Z,4.25
2023-08-15T01:48:43.522Z,4.50
2023-08-15T01:51:47.909Z,3.90
2023-08-15T01:54:52.654Z,4.25
2023-08-15T01:57:56.909Z,4.72
2023-08-15T02:01:04.014Z,4.85
2023-08-15T02:04:08.263Z,4.78
2023-08-15T02:07:12.560Z,4.85
2023-08-15T02:10:17.318Z,4.78
2023-08-15T02:13:22.728Z,4.07
2023-08-15T02:16:27.009Z,4.25
2023-08-15T02:19:31.117Z,4.93
2023-08-15T02:22:35.523Z,4.90
2023-08-15T02:25:39.868Z,5.55
2023-08-15T02:28:44.519Z,5.97
2023-08-15T02:31:49.164Z,6.93
2023-08-15T02:34:53.593Z,6.45
2023-08-15T02:37:57.747Z,7.57
2023-08-15T02:41:02.616Z,6.93
2023-08-15T02:44:07.216Z,8.52
2023-08-15T02:47:11.691Z,7.57
2023-08-15T02:50:16.292Z,8.23
2023-08-15T02:53:20.779Z,7.53
2023-08-15T02:56:25.227Z,7.63
2023-08-15T02:59:29.744Z,7.30
2023-08-15T03:02:34.046Z,6.57
2023-08-15T03:05:39.595Z,7.43
2023-08-15T03:08:44.257Z,7.40
2023-08-15T03:11:48.797Z,7.40
2023-08-15T03:14:53.482Z,7.22
2023-08-15T03:17:58.986Z,7.00
2023-08-15T03:21:06.342Z,6.80
2023-08-15T03:24:11.089Z,7.25
2023-08-15T03:27:15.177Z,7.00
2023-08-15T03:30:19.455Z,7.93
2023-08-15T03:33:25.326Z,7.22
2023-08-15T03:36:29.800Z,8.20
2023-08-15T03:39:34.535Z,8.18
2023-08-15T03:45:43.375Z,8.07
2023-08-15T03:48:48.129Z,8.38
2023-08-15T03:51:52.663Z,9.25
2023-08-15T03:54:57.013Z,8.48
2023-08-15T03:58:01.175Z,8.90
2023-08-15T04:01:05.726Z,9.70
2023-08-15T04:04:09.994Z,9.82
2023-08-15T04:07:14.332Z,8.70
2023-08-15T04:10:18.912Z,9.40
2023-08-15T04:13:23.130Z,9.77
2023-08-15T04:16:27.395Z,9.50
2023-08-15T04:19:31.681Z,9.38
2023-08-15T04:22:37.687Z,9.75
2023-08-15T04:25:42.404Z,9.73
2023-08-15T04:28:47.957Z,8.93
2023-08-15T04:31:52.349Z,9.25
2023-08-15T04:34:56.741Z,9.77
2023-08-15T04:38:01.364Z,10.02
2023-08-15T04:41:07.158Z,9.60
2023-08-15T04:44:11.840Z,9.82
2023-08-15T04:47:17.479Z,9.75
2023-08-15T04:50:21.734Z,10.18
2023-08-15T04:53:26.021Z,10.23
2023-08-15T04:56:30.266Z,10.57
2023-08-15T04:59:34.882Z,10.38
2023-08-15T05:02:40.358Z,10.43
2023-08-15T05:05:44.986Z,9.50
2023-08-15T05:08:49.098Z,10.35
2023-08-15T05:11:53.184Z,10.13
2023-08-15T05:14:58.352Z,9.52
2023-08-15T05:18:02.922Z,9.38
2023-08-15T05:21:07.308Z,10.30
2023-08-15T05:24:11.670Z,10.75
2023-08-15T05:27:15.919Z,11.52
2023-08-15T05:30:20.299Z,9.68
2023-08-15T05:33:25.238Z,10.48
2023-08-15T05:36:30.139Z,11.10
2023-08-15T05:39:34.240Z,11.40
2023-08-15T05:42:38.434Z,10.50
2023-08-15T05:45:45.071Z,9.98
2023-08-15T05:48:49.405Z,11.20
2023-08-15T05:51:55.100Z,11.52
2023-08-15T05:54:59.598Z,10.38
2023-08-15T05:58:04.558Z,10.65
2023-08-15T06:01:09.583Z,10.20
2023-08-15T06:04:14.183Z,10.40
2023-08-15T06:07:19.745Z,11.25
2023-08-15T06:10:25.432Z,11.02
2023-08-15T06:13:30.428Z,10.93
2023-08-15T06:16:35.265Z,11.27
2023-08-15T06:19:40.029Z,10.65
2023-08-15T06:22:44.376Z,10.93
2023-08-15T06:25:49.024Z,11.60
2023-08-15T06:28:53.503Z,11.35
2023-08-15T06:31:59.703Z,10.90
2023-08-15T06:35:07.316Z,10.88
2023-08-15T06:38:12.227Z,11.13
2023-08-15T06:41:16.793Z,11.38
2023-08-15T06:44:22.280Z,10.45
2023-08-15T06:47:26.688Z,11.35
2023-08-15T06:50:31.676Z,12.23
2023-08-15T06:53:36.830Z,11.52
2023-08-15T06:56:41.186Z,10.27
2023-08-15T06:59:45.272Z,9.52
2023-08-15T07:02:49.694Z,11.05
2023-08-15T07:05:54.889Z,11.90
2023-08-15T07:09:02.790Z,12.05
2023-08-15T07:12:07.824Z,12.20
2023-08-15T07:15:12.119Z,12.25
2023-08-15T07:18:16.371Z,11.65
2023-08-15T07:21:20.770Z,10.50
2023-08-15T07:24:24.988Z,11.52
2023-08-15T07:27:29.385Z,12.63
2023-08-15T07:30:34.108Z,11.93
2023-08-15T07:33:38.282Z,13.07
2023-08-15T07:36:42.778Z,13.00
2023-08-15T07:39:47.025Z,13.80
2023-08-15T07:42:54.131Z,13.13
2023-08-15T07:45:58.998Z,14.70
2023-08-15T07:49:03.238Z,13.23
2023-08-15T07:52:07.559Z,14.48
2023-08-15T07:55:12.628Z,13.52
2023-08-15T07:58:17.455Z,13.43
2023-08-15T08:01:22.013Z,13.88
2023-08-15T08:04:26.804Z,13.57
2023-08-15T08:07:32.417Z,13.88
2023-08-15T08:10:37.740Z,15.27
2023-08-15T08:13:42.178Z,15.43
2023-08-15T08:16:46.611Z,14.65
2023-08-15T08:19:50.847Z,16.75
2023-08-15T08:22:55.071Z,16.90
2023-08-15T08:25:59.616Z,17.73
2023-08-15T08:29:03.967Z,19.30
2023-08-15T08:32:08.404Z,19.88
2023-08-15T08:35:16.510Z,19.13
2023-08-15T08:38:20.997Z,19.90
2023-08-15T08:41:25.734Z,22.75
2023-08-15T08:44:31.088Z,22.15
2023-08-15T08:47:42.806Z,23.75
2023-08-15T08:50:47.363Z,24.92
2023-08-15T08:53:55.387Z,24.35
2023-08-15T08:57:01.586Z,21.95
2023-08-15T09:00:11.025Z,24.95
2023-08-15T09:03:15.801Z,25.67
2023-08-15T09:06:20.987Z,27.20
2023-08-15T09:09:25.485Z,28.17
2023-08-15T09:12:37.394Z,25.58
2023-08-15T09:15:48.703Z,26.20
2023-08-15T09:18:53.141Z,24.05
2023-08-15T09:21:57.277Z,25.08
2023-08-15T09:25:01.738Z,22.67
2023-08-15T09:28:09.263Z,20.30
2023-08-15T09:31:13.962Z,21.23
2023-08-15T09:34:19.726Z,18.52
2023-08-15T09:37:25.305Z,17.08
2023-08-15T09:40:30.184Z,14.60
2023-08-15T09:43:34.773Z,12.05
2023-08-15T09:46:40.290Z,12.68
2023-08-15T09:49:44.793Z,12.43
2023-08-15T09:52:52.891Z,11.35
2023-08-15T09:55:58.026Z,12.30
2023-08-15T09:59:02.345Z,13.35
2023-08-15T10:02:24.936Z,13.30
2023-08-15T10:05:34.979Z,14.75
2023-08-15T10:08:43.405Z,12.10
2023-08-15T10:11:49.278Z,10.65
2023-08-15T10:14:56.274Z,12.30
2023-08-15T10:18:02.227Z,11.52
2023-08-15T10:21:10.374Z,12.50
2023-08-15T10:24:15.222Z,9.90
2023-08-15T10:27:21.700Z,12.02
2023-08-15T10:30:37.586Z,12.55
2023-08-15T10:33:43.173Z,11.80
2023-08-15T10:36:47.549Z,10.20
2023-08-15T10:40:14.391Z,11.70
2023-08-15T10:43:18.976Z,14.60
2023-08-15T10:46:28.870Z,16.00
2023-08-15T10:49:33.403Z,16.20
2023-08-15T10:52:41.102Z,16.40
2023-08-15T10:55:48.182Z,12.90
2023-08-15T10:58:53.072Z,12.13
2023-08-15T11:01:57.819Z,12.80
2023-08-15T11:05:01.970Z,10.73
2023-08-15T11:08:21.309Z,12.98
2023-08-15T11:11:26.152Z,13.65
2023-08-15T11:14:30.545Z,15.35
2023-08-15T11:17:35.014Z,15.63
2023-08-15T11:20:40.333Z,11.85
2023-08-15T11:23:48.548Z,11.98
2023-08-15T11:26:56.319Z,16.38
2023-08-15T11:30:01.207Z,24.33
2023-08-15T11:33:06.047Z,23.45
2023-08-15T11:36:13.691Z,23.52
2023-08-15T11:39:19.067Z,23.33
2023-08-15T11:42:24.135Z,24.63
2023-08-15T11:45:33.225Z,24.17
2023-08-15T11:48:37.945Z,21.65
2023-08-15T11:51:42.128Z,22.73
2023-08-15T11:54:47.452Z,19.58
2023-08-15T11:57:53.257Z,19.92
2023-08-15T12:01:03.848Z,19.08
2023-08-15T12:04:08.900Z,15.68
2023-08-15T12:07:13.536Z,10.48
2023-08-15T12:10:18.464Z,10.60
2023-08-15T12:13:39.423Z,8.07
2023-08-15T12:16:44.359Z,5.22
2023-08-15T12:19:48.690Z,5.45
2023-08-15T12:22:53.197Z,3.85
2023-08-15T12:25:57.466Z,3.67
2023-08-15T12:29:02.042Z,1.52
2023-08-15T12:32:06.667Z,2.03
2023-08-15T12:35:11.041Z,1.33
2023-08-15T12:38:15.703Z,1.70
2023-08-15T12:41:19.863Z,1.65
2023-08-15T12:44:24.091Z,1.15
2023-08-15T12:47:29.495Z,1.80
2023-08-15T12:50:35.353Z,0.98
2023-08-15T12:53:39.973Z,1.15
2023-08-15T12:56:44.108Z,1.45
2023-08-15T12:59:49.182Z,1.55
2023-08-15T13:02:53.900Z,1.50
2023-08-15T13:05:58.962Z,1.77
2023-08-15T13:09:03.886Z,1.33
2023-08-15T13:12:08.858Z,1.25
2023-08-15T13:15:13.003Z,1.10
2023-08-15T13:18:19.265Z,1.73
2023-08-15T13:21:24.404Z,1.15
2023-08-15T13:24:29.029Z,1.30
2023-08-15T13:27:33.683Z,1.30
2023-08-15T13:30:38.815Z,1.33
2023-08-15T13:33:44.396Z,2.13
2023-08-15T13:36:48.643Z,1.80
2023-08-15T13:39:54.779Z,1.27
2023-08-15T13:43:00.339Z,1.40
2023-08-15T13:46:08.905Z,1.02
2023-08-15T13:49:13.224Z,1.80
2023-08-15T13:52:17.505Z,1.30
2023-08-15T13:55:22.372Z,1.40
2023-08-15T13:58:27.574Z,1.20
2023-08-15T14:01:33.478Z,1.40
2023-08-15T14:04:37.983Z,1.25
2023-08-15T14:07:42.701Z,1.55
2023-08-15T14:10:47.508Z,1.30
2023-08-15T14:13:52.042Z,1.27
2023-08-15T14:16:56.283Z,1.55
2023-08-15T14:20:00.719Z,1.70
2023-08-15T14:23:06.822Z,1.50
2023-08-15T14:26:11.903Z,1.20
2023-08-15T14:29:16.571Z,1.10
2023-08-15T14:32:21.394Z,1.55
2023-08-15T14:35:25.790Z,1.50
2023-08-15T14:38:30.076Z,2.13
2023-08-15T14:41:34.575Z,1.27
2023-08-15T14:44:38.871Z,1.20
2023-08-15T14:47:43.368Z,1.23
2023-08-15T14:50:48.697Z,1.40
2023-08-15T14:53:54.093Z,1.20
2023-08-15T14:56:58.663Z,0.90
2023-08-15T15:00:05.742Z,1.30
2023-08-15T15:03:10.199Z,1.38
2023-08-15T15:06:16.203Z,1.00
2023-08-15T15:09:20.660Z,0.82
2023-08-15T15:12:24.867Z,0.95
2023-08-15T15:15:46.018Z,0.77
2023-08-15T15:25:04.571Z,1.48
2023-08-15T15:28:08.941Z,0.90
2023-08-15T15:31:13.509Z,0.82
2023-08-15T15:34:25.272Z,0.90
2023-08-15T15:37:30.515Z,0.90
2023-08-15T15:40:34.756Z,1.10
2023-08-15T15:43:39.285Z,1.13
2023-08-15T15:46:53.904Z,1.25
2023-08-15T15:50:00.254Z,1.55
2023-08-15T15:53:05.923Z,1.35
2023-08-15T15:56:10.468Z,0.95
2023-08-15T15:59:14.846Z,0.80
2023-08-15T16:02:19.599Z,1.05
2023-08-15T16:05:24.507Z,0.85
2023-08-15T16:08:29.362Z,1.30
2023-08-15T16:11:33.969Z,1.30
2023-08-15T16:14:38.560Z,1.15
2023-08-15T16:17:43.810Z,1.30
2023-08-15T16:20:48.156Z,1.20
2023-08-15T16:23:52.538Z,2.08
2023-08-15T16:26:56.759Z,1.40
2023-08-15T16:30:14.942Z,1.20
2023-08-15T16:33:22.308Z,2.95
2023-08-15T16:36:26.929Z,1.10
2023-08-15T16:39:31.528Z,1.30
2023-08-15T16:42:35.881Z,1.42
2023-08-15T16:45:41.332Z,1.08
2023-08-15T16:48:45.997Z,1.10
2023-08-15T16:51:50.201Z,1.40
2023-08-15T16:54:54.584Z,1.38
2023-08-15T16:58:00.215Z,1.10
2023-08-15T17:01:04.763Z,1.52
2023-08-15T17:04:09.343Z,1.10
2023-08-15T17:07:13.626Z,1.33
2023-08-15T17:10:18.709Z,1.27
2023-08-15T17:13:23.139Z,1.30
2023-08-15T17:16:28.828Z,1.48
2023-08-15T17:19:33.305Z,1.58
2023-08-15T17:22:38.252Z,1.20
2023-08-15T17:25:42.817Z,1.42
2023-08-15T17:28:47.378Z,1.20
2023-08-15T17:31:53.520Z,1.40
2023-08-15T17:34:58.188Z,1.35
2023-08-15T17:38:02.686Z,1.20
2023-08-15T17:41:07.523Z,1.30
2023-08-15T17:44:11.898Z,0.90
2023-08-15T17:47:16.115Z,1.65
2023-08-15T17:50:20.631Z,1.95
2023-08-15T17:53:29.204Z,1.58
2023-08-15T17:56:34.226Z,1.20
2023-08-15T17:59:38.711Z,1.45
2023-08-15T18:02:43.093Z,1.30
2023-08-15T18:05:48.730Z,1.35
2023-08-15T18:08:53.012Z,1.60
2023-08-15T18:11:57.455Z,1.20
2023-08-15T18:15:01.893Z,1.25
2023-08-15T18:18:06.215Z,1.75
2023-08-15T18:21:10.459Z,1.42
2023-08-15T18:24:15.055Z,1.23
2023-08-15T18:27:21.034Z,1.58
2023-08-15T18:30:28.522Z,1.25
2023-08-15T18:33:34.130Z,1.83
2023-08-15T18:36:38.801Z,1.55
2023-08-15T18:39:43.331Z,1.42
2023-08-15T18:42:47.893Z,1.20
2023-08-15T18:45:53.407Z,1.30
2023-08-15T18:48:57.864Z,1.42
2023-08-15T18:52:02.194Z,1.73
2023-08-15T18:55:07.550Z,2.03
2023-08-15T18:58:12.274Z,1.80
2023-08-15T19:01:16.731Z,1.80
2023-08-15T19:04:21.764Z,1.45
2023-08-15T19:07:30.304Z,1.85
2023-08-15T19:10:34.876Z,1.85
2023-08-15T19:13:39.238Z,1.40
2023-08-15T19:16:43.593Z,1.67
2023-08-15T19:19:47.774Z,1.80
2023-08-15T19:22:52.075Z,2.25
2023-08-15T19:25:56.329Z,1.67
2023-08-15T19:29:01.015Z,1.60
2023-08-15T19:32:05.893Z,1.65
2023-08-15T19:35:10.629Z,2.40
2023-08-15T19:38:15.197Z,1.70
2023-08-15T19:41:19.554Z,1.98
2023-08-15T19:44:23.943Z,1.90
2023-08-15T19:47:28.683Z,1.45
2023-08-15T19:50:33.701Z,1.80
2023-08-15T19:53:38.432Z,1.40
2023-08-15T19:56:42.926Z,1.20
2023-08-15T19:59:47.152Z,1.45
2023-08-15T20:02:51.502Z,1.80
2023-08-15T20:05:56.042Z,1.50
2023-08-15T20:09:00.310Z,1.85
2023-08-15T20:12:05.507Z,1.73
2023-08-15T20:15:10.718Z,1.90
2023-08-15T20:18:17.114Z,2.10
2023-08-15T20:21:22.373Z,2.10
2023-08-15T20:24:27.337Z,2.00
2023-08-15T20:27:31.588Z,2.10
2023-08-15T20:30:36.368Z,1.90
2023-08-15T20:33:40.680Z,2.40
2023-08-15T20:36:44.963Z,2.60
2023-08-15T20:39:49.743Z,2.83
2023-08-15T20:42:54.560Z,2.67
2023-08-15T20:45:59.033Z,3.08
2023-08-15T20:49:04.751Z,2.88
2023-08-15T20:52:11.010Z,2.97
2023-08-15T20:55:15.479Z,2.80
2023-08-15T20:58:19.957Z,2.95
2023-08-15T21:01:24.713Z,2.47
2023-08-15T21:04:29.243Z,2.75
2023-08-15T21:07:33.670Z,2.95
2023-08-15T21:10:38.130Z,3.10
2023-08-15T21:13:42.817Z,2.83
2023-08-15T21:16:48.013Z,2.40
2023-08-15T21:19:52.506Z,2.53
2023-08-15T21:22:57.038Z,2.25
2023-08-15T21:26:01.711Z,2.63
2023-08-15T21:29:06.148Z,3.67
2023-08-15T21:32:10.840Z,2.60
2023-08-15T21:35:15.298Z,2.47
2023-08-15T21:38:20.168Z,2.30
2023-08-15T21:41:24.241Z,2.05
2023-08-15T21:44:28.760Z,2.70
2023-08-15T21:47:33.380Z,2.70
2023-08-15T21:50:38.560Z,2.75
2023-08-15T21:53:43.193Z,3.00
2023-08-15T21:56:47.876Z,2.47
2023-08-15T21:59:52.098Z,2.85
2023-08-15T22:02:58.317Z,3.90
2023-08-15T22:06:02.890Z,3.80
2023-08-15T22:09:07.661Z,3.60
2023-08-15T22:12:11.957Z,3.72
2023-08-15T22:15:18.524Z,3.55
2023-08-15T22:18:23.582Z,4.30
2023-08-15T22:21:28.188Z,4.18
2023-08-15T22:24:33.106Z,4.25
2023-08-15T22:27:37.504Z,3.40
2023-08-15T22:30:42.225Z,3.08
2023-08-15T22:33:46.577Z,3.03
2023-08-15T22:36:52.148Z,3.15
2023-08-15T22:39:56.854Z,3.17
2023-08-15T22:43:01.290Z,3.25
2023-08-15T22:46:05.775Z,2.83
2023-08-15T22:52:14.784Z,2.95
2023-08-15T22:55:19.598Z,4.18
2023-08-15T22:58:23.977Z,3.50
2023-08-15T23:01:28.394Z,3.85
2023-08-15T23:04:32.857Z,3.55
2023-08-15T23:07:37.496Z,3.75
2023-08-15T23:10:42.003Z,3.50
2023-08-15T23:13:46.469Z,3.90
2023-08-15T23:16:50.892Z,3.33
2023-08-15T23:19:55.178Z,3.70
2023-08-15T23:26:03.948Z,4.68
2023-08-15T23:29:08.902Z,4.32
2023-08-15T23:32:13.166Z,5.68
2023-08-15T23:35:18.100Z,4.25
2023-08-15T23:38:22.457Z,4.45
2023-08-15T23:41:27.950Z,5.25
2023-08-15T23:44:32.190Z,4.93
2023-08-15T23:47:36.563Z,4.78
2023-08-15T23:50:41.087Z,5.07
2023-08-15T23:53:48.242Z,4.90
2023-08-15T23:56:52.469Z,5.07
2023-08-15T23:59:56.921Z,4.20
